sensor_id;sensor_type;location;lat;lon;timestamp;temperature;humidity
49731;DHT22;35622;52.008;5.426;2023-05-10T00:01:06;17.60;88.90
49731;DHT22;35622;52.008;5.426;2023-05-10T00:03:31;17.60;88.80
49731;DHT22;35622;52.008;5.426;2023-05-10T00:05:58;17.60;89.00
49731;DHT22;35622;52.008;5.426;2023-05-10T00:08:23;17.70;89.00
49731;DHT22;35622;52.008;5.426;2023-05-10T00:10:49;17.70;88.40
49731;DHT22;35622;52.008;5.426;2023-05-10T00:13:15;17.70;88.50
49731;DHT22;35622;52.008;5.426;2023-05-10T00:15:40;17.70;88.80
49731;DHT22;35622;52.008;5.426;2023-05-10T00:18:06;17.70;88.80
49731;DHT22;35622;52.008;5.426;2023-05-10T00:20:32;17.70;89.10
49731;DHT22;35622;52.008;5.426;2023-05-10T00:22:57;17.80;88.60
49731;DHT22;35622;52.008;5.426;2023-05-10T00:25:23;17.90;87.90
49731;DHT22;35622;52.008;5.426;2023-05-10T00:27:49;17.90;87.90
49731;DHT22;35622;52.008;5.426;2023-05-10T00:30:15;17.90;87.90
49731;DHT22;35622;52.008;5.426;2023-05-10T00:32:40;17.80;88.10
49731;DHT22;35622;52.008;5.426;2023-05-10T00:35:06;17.80;88.40
49731;DHT22;35622;52.008;5.426;2023-05-10T00:37:32;17.70;88.60
49731;DHT22;35622;52.008;5.426;2023-05-10T00:39:57;17.80;89.00
49731;DHT22;35622;52.008;5.426;2023-05-10T00:42:23;17.80;89.00
49731;DHT22;35622;52.008;5.426;2023-05-10T00:44:48;17.80;89.00
49731;DHT22;35622;52.008;5.426;2023-05-10T00:47:15;17.90;88.60
49731;DHT22;35622;52.008;5.426;2023-05-10T00:49:42;17.90;88.50
49731;DHT22;35622;52.008;5.426;2023-05-10T00:52:08;17.90;88.60
49731;DHT22;35622;52.008;5.426;2023-05-10T00:54:46;17.80;88.70
49731;DHT22;35622;52.008;5.426;2023-05-10T00:57:12;17.70;89.10
49731;DHT22;35622;52.008;5.426;2023-05-10T00:59:38;17.70;89.30
49731;DHT22;35622;52.008;5.426;2023-05-10T01:02:04;17.70;88.90
49731;DHT22;35622;52.008;5.426;2023-05-10T01:04:30;17.70;89.00
49731;DHT22;35622;52.008;5.426;2023-05-10T01:06:56;17.70;89.60
49731;DHT22;35622;52.008;5.426;2023-05-10T01:09:22;17.80;89.70
49731;DHT22;35622;52.008;5.426;2023-05-10T01:11:49;17.80;89.50
49731;DHT22;35622;52.008;5.426;2023-05-10T01:14:18;17.90;89.00
49731;DHT22;35622;52.008;5.426;2023-05-10T01:16:44;17.90;88.80
49731;DHT22;35622;52.008;5.426;2023-05-10T01:19:17;18.00;89.00
49731;DHT22;35622;52.008;5.426;2023-05-10T01:22:09;17.90;88.60
49731;DHT22;35622;52.008;5.426;2023-05-10T01:24:51;18.00;88.60
49731;DHT22;35622;52.008;5.426;2023-05-10T01:27:49;17.90;89.00
49731;DHT22;35622;52.008;5.426;2023-05-10T01:35:46;17.90;89.10
49731;DHT22;35622;52.008;5.426;2023-05-10T01:44:10;17.80;90.00
49731;DHT22;35622;52.008;5.426;2023-05-10T01:46:38;17.80;90.00
49731;DHT22;35622;52.008;5.426;2023-05-10T01:49:10;17.60;90.30
49731;DHT22;35622;52.008;5.426;2023-05-10T01:51:45;17.80;90.30
49731;DHT22;35622;52.008;5.426;2023-05-10T01:54:13;17.80;89.80
49731;DHT22;35622;52.008;5.426;2023-05-10T01:56:40;17.80;90.40
49731;DHT22;35622;52.008;5.426;2023-05-10T01:59:11;17.80;90.00
49731;DHT22;35622;52.008;5.426;2023-05-10T02:01:39;17.70;90.00
49731;DHT22;35622;52.008;5.426;2023-05-10T02:04:07;17.60;90.30
49731;DHT22;35622;52.008;5.426;2023-05-10T02:06:33;17.70;90.50
49731;DHT22;35622;52.008;5.426;2023-05-10T02:09:01;17.80;90.20
49731;DHT22;35622;52.008;5.426;2023-05-10T02:11:27;17.80;90.00
49731;DHT22;35622;52.008;5.426;2023-05-10T02:13:54;17.90;90.00
49731;DHT22;35622;52.008;5.426;2023-05-10T02:16:24;17.80;90.00
49731;DHT22;35622;52.008;5.426;2023-05-10T02:18:52;17.70;90.00
49731;DHT22;35622;52.008;5.426;2023-05-10T02:21:19;17.70;90.10
49731;DHT22;35622;52.008;5.426;2023-05-10T02:23:46;17.70;90.40
49731;DHT22;35622;52.008;5.426;2023-05-10T02:26:14;17.60;90.40
49731;DHT22;35622;52.008;5.426;2023-05-10T02:28:40;17.60;90.30
49731;DHT22;35622;52.008;5.426;2023-05-10T02:31:07;17.70;90.40
49731;DHT22;35622;52.008;5.426;2023-05-10T02:33:35;17.60;90.10
49731;DHT22;35622;52.008;5.426;2023-05-10T02:36:02;17.70;90.10
49731;DHT22;35622;52.008;5.426;2023-05-10T02:38:29;17.70;90.00
49731;DHT22;35622;52.008;5.426;2023-05-10T02:40:56;17.50;89.70
49731;DHT22;35622;52.008;5.426;2023-05-10T02:43:22;17.60;89.70
49731;DHT22;35622;52.008;5.426;2023-05-10T02:45:48;17.50;89.50
49731;DHT22;35622;52.008;5.426;2023-05-10T02:48:15;17.50;89.90
49731;DHT22;35622;52.008;5.426;2023-05-10T02:50:44;17.40;90.00
49731;DHT22;35622;52.008;5.426;2023-05-10T02:53:13;17.30;90.30
49731;DHT22;35622;52.008;5.426;2023-05-10T02:55:41;17.40;90.20
49731;DHT22;35622;52.008;5.426;2023-05-10T02:58:08;17.30;90.30
49731;DHT22;35622;52.008;5.426;2023-05-10T03:00:34;17.30;90.20
49731;DHT22;35622;52.008;5.426;2023-05-10T03:03:01;17.30;90.20
49731;DHT22;35622;52.008;5.426;2023-05-10T03:05:27;17.30;90.00
49731;DHT22;35622;52.008;5.426;2023-05-10T03:07:53;17.00;89.80
49731;DHT22;35622;52.008;5.426;2023-05-10T03:10:22;17.10;90.50
49731;DHT22;35622;52.008;5.426;2023-05-10T03:15:42;17.50;89.20
49731;DHT22;35622;52.008;5.426;2023-05-10T03:18:15;17.30;89.40
49731;DHT22;35622;52.008;5.426;2023-05-10T03:20:49;17.40;89.20
49731;DHT22;35622;52.008;5.426;2023-05-10T03:26:04;17.00;89.30
49731;DHT22;35622;52.008;5.426;2023-05-10T03:28:31;17.10;90.30
49731;DHT22;35622;52.008;5.426;2023-05-10T03:30:59;17.10;90.30
49731;DHT22;35622;52.008;5.426;2023-05-10T03:33:24;17.30;89.90
49731;DHT22;35622;52.008;5.426;2023-05-10T03:35:50;17.10;89.80
49731;DHT22;35622;52.008;5.426;2023-05-10T03:38:16;17.10;90.30
49731;DHT22;35622;52.008;5.426;2023-05-10T03:40:41;17.10;90.30
49731;DHT22;35622;52.008;5.426;2023-05-10T03:43:07;17.30;90.30
49731;DHT22;35622;52.008;5.426;2023-05-10T03:45:32;17.30;90.10
49731;DHT22;35622;52.008;5.426;2023-05-10T03:47:58;17.40;89.80
49731;DHT22;35622;52.008;5.426;2023-05-10T03:50:24;17.30;89.50
49731;DHT22;35622;52.008;5.426;2023-05-10T03:52:50;17.30;89.90
49731;DHT22;35622;52.008;5.426;2023-05-10T03:55:15;17.30;89.70
49731;DHT22;35622;52.008;5.426;2023-05-10T03:57:41;17.30;90.00
49731;DHT22;35622;52.008;5.426;2023-05-10T04:00:08;17.10;90.00
49731;DHT22;35622;52.008;5.426;2023-05-10T04:02:33;17.20;89.70
49731;DHT22;35622;52.008;5.426;2023-05-10T04:04:59;16.90;90.30
49731;DHT22;35622;52.008;5.426;2023-05-10T04:07:24;17.00;90.50
49731;DHT22;35622;52.008;5.426;2023-05-10T04:09:50;17.10;90.60
49731;DHT22;35622;52.008;5.426;2023-05-10T04:12:15;17.20;90.30
49731;DHT22;35622;52.008;5.426;2023-05-10T04:14:41;17.00;90.40
49731;DHT22;35622;52.008;5.426;2023-05-10T04:17:07;17.20;90.50
49731;DHT22;35622;52.008;5.426;2023-05-10T04:19:33;17.10;90.40
49731;DHT22;35622;52.008;5.426;2023-05-10T04:21:58;17.20;90.40
49731;DHT22;35622;52.008;5.426;2023-05-10T04:24:24;17.30;90.20
49731;DHT22;35622;52.008;5.426;2023-05-10T04:26:50;17.00;90.40
49731;DHT22;35622;52.008;5.426;2023-05-10T04:29:16;17.10;90.60
49731;DHT22;35622;52.008;5.426;2023-05-10T04:31:41;17.20;90.40
49731;DHT22;35622;52.008;5.426;2023-05-10T04:34:07;17.40;90.30
49731;DHT22;35622;52.008;5.426;2023-05-10T04:36:33;17.30;90.00
49731;DHT22;35622;52.008;5.426;2023-05-10T04:39:01;17.40;90.20
49731;DHT22;35622;52.008;5.426;2023-05-10T04:41:28;17.40;90.20
49731;DHT22;35622;52.008;5.426;2023-05-10T04:43:53;17.50;90.20
49731;DHT22;35622;52.008;5.426;2023-05-10T04:46:19;17.60;90.00
49731;DHT22;35622;52.008;5.426;2023-05-10T04:48:44;17.40;89.80
49731;DHT22;35622;52.008;5.426;2023-05-10T04:51:10;17.20;90.20
49731;DHT22;35622;52.008;5.426;2023-05-10T04:53:36;17.40;90.10
49731;DHT22;35622;52.008;5.426;2023-05-10T04:56:01;17.30;90.40
49731;DHT22;35622;52.008;5.426;2023-05-10T04:58:27;17.30;90.30
49731;DHT22;35622;52.008;5.426;2023-05-10T05:00:52;17.20;90.40
49731;DHT22;35622;52.008;5.426;2023-05-10T05:03:18;17.50;90.30
49731;DHT22;35622;52.008;5.426;2023-05-10T05:05:44;17.40;90.10
49731;DHT22;35622;52.008;5.426;2023-05-10T05:08:10;17.40;90.50
49731;DHT22;35622;52.008;5.426;2023-05-10T05:10:35;17.30;90.70
49731;DHT22;35622;52.008;5.426;2023-05-10T05:13:01;17.40;90.90
49731;DHT22;35622;52.008;5.426;2023-05-10T05:15:26;17.50;90.60
49731;DHT22;35622;52.008;5.426;2023-05-10T05:17:52;17.60;90.30
49731;DHT22;35622;52.008;5.426;2023-05-10T05:20:18;17.70;90.20
49731;DHT22;35622;52.008;5.426;2023-05-10T05:22:44;17.70;90.00
49731;DHT22;35622;52.008;5.426;2023-05-10T05:25:10;17.80;89.90
49731;DHT22;35622;52.008;5.426;2023-05-10T05:27:36;17.90;88.80
49731;DHT22;35622;52.008;5.426;2023-05-10T05:30:02;17.90;89.10
49731;DHT22;35622;52.008;5.426;2023-05-10T05:32:28;17.70;89.50
49731;DHT22;35622;52.008;5.426;2023-05-10T05:34:54;17.80;89.60
49731;DHT22;35622;52.008;5.426;2023-05-10T05:37:20;17.80;89.00
49731;DHT22;35622;52.008;5.426;2023-05-10T05:39:47;17.70;88.90
49731;DHT22;35622;52.008;5.426;2023-05-10T05:42:13;17.90;89.20
49731;DHT22;35622;52.008;5.426;2023-05-10T05:44:39;18.00;88.80
49731;DHT22;35622;52.008;5.426;2023-05-10T05:47:05;17.80;89.10
49731;DHT22;35622;52.008;5.426;2023-05-10T05:49:31;17.70;89.50
49731;DHT22;35622;52.008;5.426;2023-05-10T05:52:01;17.70;90.10
49731;DHT22;35622;52.008;5.426;2023-05-10T05:54:27;17.80;89.50
49731;DHT22;35622;52.008;5.426;2023-05-10T05:56:57;17.60;89.90
49731;DHT22;35622;52.008;5.426;2023-05-10T05:59:23;17.40;90.10
49731;DHT22;35622;52.008;5.426;2023-05-10T06:01:49;17.40;90.60
49731;DHT22;35622;52.008;5.426;2023-05-10T06:04:15;17.60;90.50
49731;DHT22;35622;52.008;5.426;2023-05-10T06:06:40;17.70;90.20
49731;DHT22;35622;52.008;5.426;2023-05-10T06:09:06;17.70;90.10
49731;DHT22;35622;52.008;5.426;2023-05-10T06:11:32;17.50;90.30
49731;DHT22;35622;52.008;5.426;2023-05-10T06:13:58;17.70;90.20
49731;DHT22;35622;52.008;5.426;2023-05-10T06:16:24;17.70;90.00
49731;DHT22;35622;52.008;5.426;2023-05-10T06:18:50;17.60;90.20
49731;DHT22;35622;52.008;5.426;2023-05-10T06:21:16;17.70;90.00
49731;DHT22;35622;52.008;5.426;2023-05-10T06:23:42;17.60;90.30
49731;DHT22;35622;52.008;5.426;2023-05-10T06:26:07;17.50;90.00
49731;DHT22;35622;52.008;5.426;2023-05-10T06:28:33;17.60;90.30
49731;DHT22;35622;52.008;5.426;2023-05-10T06:30:59;17.70;89.10
49731;DHT22;35622;52.008;5.426;2023-05-10T06:33:25;17.40;90.10
49731;DHT22;35622;52.008;5.426;2023-05-10T06:35:51;17.50;90.60
49731;DHT22;35622;52.008;5.426;2023-05-10T06:38:16;17.70;90.40
49731;DHT22;35622;52.008;5.426;2023-05-10T06:40:42;17.70;90.40
49731;DHT22;35622;52.008;5.426;2023-05-10T06:43:08;17.80;90.00
49731;DHT22;35622;52.008;5.426;2023-05-10T06:45:34;17.80;89.80
49731;DHT22;35622;52.008;5.426;2023-05-10T06:48:00;17.70;89.80
49731;DHT22;35622;52.008;5.426;2023-05-10T06:50:26;18.00;88.20
49731;DHT22;35622;52.008;5.426;2023-05-10T06:52:51;18.10;88.20
49731;DHT22;35622;52.008;5.426;2023-05-10T06:55:17;18.00;88.50
49731;DHT22;35622;52.008;5.426;2023-05-10T06:57:43;18.10;87.70
49731;DHT22;35622;52.008;5.426;2023-05-10T07:00:08;18.00;88.00
49731;DHT22;35622;52.008;5.426;2023-05-10T07:02:35;18.10;88.80
49731;DHT22;35622;52.008;5.426;2023-05-10T07:05:01;18.50;88.70
49731;DHT22;35622;52.008;5.426;2023-05-10T07:07:27;18.90;86.30
49731;DHT22;35622;52.008;5.426;2023-05-10T07:09:53;19.10;86.20
49731;DHT22;35622;52.008;5.426;2023-05-10T07:12:18;19.40;84.30
49731;DHT22;35622;52.008;5.426;2023-05-10T07:14:44;19.60;82.60
49731;DHT22;35622;52.008;5.426;2023-05-10T07:17:10;19.80;82.40
49731;DHT22;35622;52.008;5.426;2023-05-10T07:19:36;20.00;80.40
49731;DHT22;35622;52.008;5.426;2023-05-10T07:22:02;20.10;78.20
49731;DHT22;35622;52.008;5.426;2023-05-10T07:24:27;20.00;78.80
49731;DHT22;35622;52.008;5.426;2023-05-10T07:26:53;20.00;78.70
49731;DHT22;35622;52.008;5.426;2023-05-10T07:29:18;19.80;78.50
49731;DHT22;35622;52.008;5.426;2023-05-10T07:31:44;19.80;77.30
49731;DHT22;35622;52.008;5.426;2023-05-10T07:34:09;19.80;77.10
49731;DHT22;35622;52.008;5.426;2023-05-10T07:36:35;19.90;75.60
49731;DHT22;35622;52.008;5.426;2023-05-10T07:39:01;19.80;76.00
49731;DHT22;35622;52.008;5.426;2023-05-10T07:41:28;19.60;76.50
49731;DHT22;35622;52.008;5.426;2023-05-10T07:43:53;19.50;77.10
49731;DHT22;35622;52.008;5.426;2023-05-10T07:46:19;19.50;77.80
49731;DHT22;35622;52.008;5.426;2023-05-10T07:48:45;19.50;78.20
49731;DHT22;35622;52.008;5.426;2023-05-10T07:51:11;19.60;77.20
49731;DHT22;35622;52.008;5.426;2023-05-10T07:53:37;19.80;76.60
49731;DHT22;35622;52.008;5.426;2023-05-10T07:56:21;19.90;75.80
49731;DHT22;35622;52.008;5.426;2023-05-10T07:58:47;20.00;74.90
49731;DHT22;35622;52.008;5.426;2023-05-10T08:01:12;20.00;75.70
49731;DHT22;35622;52.008;5.426;2023-05-10T08:03:38;20.20;75.40
49731;DHT22;35622;52.008;5.426;2023-05-10T08:06:04;20.40;74.30
49731;DHT22;35622;52.008;5.426;2023-05-10T08:08:29;20.60;71.50
49731;DHT22;35622;52.008;5.426;2023-05-10T08:10:55;20.50;71.40
49731;DHT22;35622;52.008;5.426;2023-05-10T08:13:21;20.50;72.10
49731;DHT22;35622;52.008;5.426;2023-05-10T08:15:46;20.60;70.40
49731;DHT22;35622;52.008;5.426;2023-05-10T08:18:12;20.10;72.00
49731;DHT22;35622;52.008;5.426;2023-05-10T08:20:38;19.90;73.40
49731;DHT22;35622;52.008;5.426;2023-05-10T08:23:03;20.00;74.10
49731;DHT22;35622;52.008;5.426;2023-05-10T08:25:29;20.30;72.80
49731;DHT22;35622;52.008;5.426;2023-05-10T08:27:55;20.30;73.60
49731;DHT22;35622;52.008;5.426;2023-05-10T08:30:20;20.40;72.70
49731;DHT22;35622;52.008;5.426;2023-05-10T08:32:46;20.40;73.70
49731;DHT22;35622;52.008;5.426;2023-05-10T08:35:11;20.40;73.80
49731;DHT22;35622;52.008;5.426;2023-05-10T08:37:37;20.40;74.10
49731;DHT22;35622;52.008;5.426;2023-05-10T08:40:03;20.30;73.90
49731;DHT22;35622;52.008;5.426;2023-05-10T08:42:30;20.10;75.30
49731;DHT22;35622;52.008;5.426;2023-05-10T08:45:00;19.90;75.50
49731;DHT22;35622;52.008;5.426;2023-05-10T08:47:27;20.10;73.90
49731;DHT22;35622;52.008;5.426;2023-05-10T08:49:54;20.20;74.30
49731;DHT22;35622;52.008;5.426;2023-05-10T08:52:21;20.30;73.70
49731;DHT22;35622;52.008;5.426;2023-05-10T08:54:49;20.40;72.20
49731;DHT22;35622;52.008;5.426;2023-05-10T08:57:15;20.60;72.80
49731;DHT22;35622;52.008;5.426;2023-05-10T08:59:40;20.70;72.00
49731;DHT22;35622;52.008;5.426;2023-05-10T09:02:06;20.60;71.40
49731;DHT22;35622;52.008;5.426;2023-05-10T09:04:33;20.60;70.90
49731;DHT22;35622;52.008;5.426;2023-05-10T09:06:59;20.50;71.70
49731;DHT22;35622;52.008;5.426;2023-05-10T09:09:25;20.40;72.60
49731;DHT22;35622;52.008;5.426;2023-05-10T09:11:51;20.50;71.80
49731;DHT22;35622;52.008;5.426;2023-05-10T09:14:18;20.60;71.00
49731;DHT22;35622;52.008;5.426;2023-05-10T09:16:45;20.50;71.70
49731;DHT22;35622;52.008;5.426;2023-05-10T09:19:10;20.50;71.80
49731;DHT22;35622;52.008;5.426;2023-05-10T09:21:37;20.60;72.00
49731;DHT22;35622;52.008;5.426;2023-05-10T09:24:07;20.70;71.40
49731;DHT22;35622;52.008;5.426;2023-05-10T09:26:34;21.00;70.40
49731;DHT22;35622;52.008;5.426;2023-05-10T09:29:01;21.00;69.60
49731;DHT22;35622;52.008;5.426;2023-05-10T09:31:50;21.00;70.30
49731;DHT22;35622;52.008;5.426;2023-05-10T09:34:19;21.20;70.10
49731;DHT22;35622;52.008;5.426;2023-05-10T09:36:56;21.50;70.20
49731;DHT22;35622;52.008;5.426;2023-05-10T09:39:36;22.10;67.50
49731;DHT22;35622;52.008;5.426;2023-05-10T09:42:07;22.50;66.20
49731;DHT22;35622;52.008;5.426;2023-05-10T09:44:34;22.30;63.30
49731;DHT22;35622;52.008;5.426;2023-05-10T09:47:01;22.40;64.00
49731;DHT22;35622;52.008;5.426;2023-05-10T09:49:26;22.30;62.60
49731;DHT22;35622;52.008;5.426;2023-05-10T09:52:06;22.50;65.30
49731;DHT22;35622;52.008;5.426;2023-05-10T09:54:32;22.60;64.90
49731;DHT22;35622;52.008;5.426;2023-05-10T09:56:58;22.60;64.40
49731;DHT22;35622;52.008;5.426;2023-05-10T09:59:26;22.90;63.30
49731;DHT22;35622;52.008;5.426;2023-05-10T10:01:55;23.00;63.60
49731;DHT22;35622;52.008;5.426;2023-05-10T10:04:21;23.10;61.30
49731;DHT22;35622;52.008;5.426;2023-05-10T10:06:47;23.10;60.70
49731;DHT22;35622;52.008;5.426;2023-05-10T10:09:23;23.20;59.30
49731;DHT22;35622;52.008;5.426;2023-05-10T10:11:49;23.10;60.50
49731;DHT22;35622;52.008;5.426;2023-05-10T10:14:17;23.20;58.40
49731;DHT22;35622;52.008;5.426;2023-05-10T10:16:43;23.10;58.20
49731;DHT22;35622;52.008;5.426;2023-05-10T10:19:10;23.10;58.20
49731;DHT22;35622;52.008;5.426;2023-05-10T10:21:35;23.10;59.00
49731;DHT22;35622;52.008;5.426;2023-05-10T10:24:01;22.60;59.90
49731;DHT22;35622;52.008;5.426;2023-05-10T10:26:27;22.70;59.90
49731;DHT22;35622;52.008;5.426;2023-05-10T10:31:26;23.10;59.90
49731;DHT22;35622;52.008;5.426;2023-05-10T10:34:01;23.10;59.10
49731;DHT22;35622;52.008;5.426;2023-05-10T10:36:29;23.10;59.20
49731;DHT22;35622;52.008;5.426;2023-05-10T10:38:56;23.00;59.20
49731;DHT22;35622;52.008;5.426;2023-05-10T10:49:43;22.90;60.50
49731;DHT22;35622;52.008;5.426;2023-05-10T10:52:25;22.70;61.70
49731;DHT22;35622;52.008;5.426;2023-05-10T10:55:17;22.50;61.00
49731;DHT22;35622;52.008;5.426;2023-05-10T11:02:59;21.80;64.80
49731;DHT22;35622;52.008;5.426;2023-05-10T11:08:46;21.60;66.40
49731;DHT22;35622;52.008;5.426;2023-05-10T11:11:14;21.60;66.60
49731;DHT22;35622;52.008;5.426;2023-05-10T11:13:44;21.40;64.00
49731;DHT22;35622;52.008;5.426;2023-05-10T11:16:24;21.40;65.00
49731;DHT22;35622;52.008;5.426;2023-05-10T11:19:02;21.70;65.10
49731;DHT22;35622;52.008;5.426;2023-05-10T11:21:32;22.10;62.50
49731;DHT22;35622;52.008;5.426;2023-05-10T11:23:59;22.30;63.80
49731;DHT22;35622;52.008;5.426;2023-05-10T11:26:30;22.90;60.50
49731;DHT22;35622;52.008;5.426;2023-05-10T11:28:56;23.60;58.40
49731;DHT22;35622;52.008;5.426;2023-05-10T11:31:23;24.00;55.70
49731;DHT22;35622;52.008;5.426;2023-05-10T11:33:53;24.10;56.80
49731;DHT22;35622;52.008;5.426;2023-05-10T11:38:45;24.50;54.90
49731;DHT22;35622;52.008;5.426;2023-05-10T11:41:12;24.70;52.50
49731;DHT22;35622;52.008;5.426;2023-05-10T11:43:42;24.60;54.60
49731;DHT22;35622;52.008;5.426;2023-05-10T11:46:10;24.80;55.60
49731;DHT22;35622;52.008;5.426;2023-05-10T11:48:38;25.30;54.60
49731;DHT22;35622;52.008;5.426;2023-05-10T11:51:04;26.10;53.60
49731;DHT22;35622;52.008;5.426;2023-05-10T11:53:31;26.90;52.50
49731;DHT22;35622;52.008;5.426;2023-05-10T11:56:10;27.60;47.40
49731;DHT22;35622;52.008;5.426;2023-05-10T11:58:37;28.10;46.90
49731;DHT22;35622;52.008;5.426;2023-05-10T12:01:04;28.40;45.10
49731;DHT22;35622;52.008;5.426;2023-05-10T12:03:30;28.50;45.10
49731;DHT22;35622;52.008;5.426;2023-05-10T12:05:56;28.50;45.90
49731;DHT22;35622;52.008;5.426;2023-05-10T12:08:24;28.20;44.30
49731;DHT22;35622;52.008;5.426;2023-05-10T12:10:50;28.10;41.90
49731;DHT22;35622;52.008;5.426;2023-05-10T12:13:17;28.80;42.00
49731;DHT22;35622;52.008;5.426;2023-05-10T12:15:43;28.90;42.50
49731;DHT22;35622;52.008;5.426;2023-05-10T12:18:13;28.30;42.90
49731;DHT22;35622;52.008;5.426;2023-05-10T12:20:40;27.80;43.30
49731;DHT22;35622;52.008;5.426;2023-05-10T12:23:07;27.10;44.00
49731;DHT22;35622;52.008;5.426;2023-05-10T12:25:35;26.10;46.60
49731;DHT22;35622;52.008;5.426;2023-05-10T12:28:03;25.10;49.60
49731;DHT22;35622;52.008;5.426;2023-05-10T12:30:32;24.30;50.50
49731;DHT22;35622;52.008;5.426;2023-05-10T12:35:33;23.60;53.30
49731;DHT22;35622;52.008;5.426;2023-05-10T12:38:00;23.40;55.90
49731;DHT22;35622;52.008;5.426;2023-05-10T12:40:25;23.50;55.50
49731;DHT22;35622;52.008;5.426;2023-05-10T12:42:51;23.50;55.10
49731;DHT22;35622;52.008;5.426;2023-05-10T12:45:18;23.50;55.50
49731;DHT22;35622;52.008;5.426;2023-05-10T12:47:43;23.50;55.00
49731;DHT22;35622;52.008;5.426;2023-05-10T12:50:09;23.50;56.50
49731;DHT22;35622;52.008;5.426;2023-05-10T12:52:35;23.20;58.50
49731;DHT22;35622;52.008;5.426;2023-05-10T12:55:23;22.80;59.50
49731;DHT22;35622;52.008;5.426;2023-05-10T12:57:48;22.40;61.30
49731;DHT22;35622;52.008;5.426;2023-05-10T13:00:14;22.00;63.50
49731;DHT22;35622;52.008;5.426;2023-05-10T13:02:40;21.60;65.10
49731;DHT22;35622;52.008;5.426;2023-05-10T13:05:06;21.50;66.00
49731;DHT22;35622;52.008;5.426;2023-05-10T13:07:32;21.40;67.00
49731;DHT22;35622;52.008;5.426;2023-05-10T13:09:57;21.50;67.20
49731;DHT22;35622;52.008;5.426;2023-05-10T13:12:23;21.50;67.70
49731;DHT22;35622;52.008;5.426;2023-05-10T13:14:48;21.30;68.60
49731;DHT22;35622;52.008;5.426;2023-05-10T13:17:14;21.30;68.50
49731;DHT22;35622;52.008;5.426;2023-05-10T13:19:40;21.20;69.10
49731;DHT22;35622;52.008;5.426;2023-05-10T13:22:05;21.20;68.60
49731;DHT22;35622;52.008;5.426;2023-05-10T13:24:31;21.00;69.60
49731;DHT22;35622;52.008;5.426;2023-05-10T13:26:58;21.10;69.40
49731;DHT22;35622;52.008;5.426;2023-05-10T13:29:23;20.90;70.20
49731;DHT22;35622;52.008;5.426;2023-05-10T13:31:49;20.80;70.10
49731;DHT22;35622;52.008;5.426;2023-05-10T13:34:15;20.50;69.80
49731;DHT22;35622;52.008;5.426;2023-05-10T13:36:40;20.40;70.10
49731;DHT22;35622;52.008;5.426;2023-05-10T13:39:06;20.10;71.40
49731;DHT22;35622;52.008;5.426;2023-05-10T13:41:32;20.10;72.20
49731;DHT22;35622;52.008;5.426;2023-05-10T13:43:57;20.00;72.60
49731;DHT22;35622;52.008;5.426;2023-05-10T13:46:23;19.80;72.80
49731;DHT22;35622;52.008;5.426;2023-05-10T13:48:48;19.70;73.40
49731;DHT22;35622;52.008;5.426;2023-05-10T13:51:14;19.50;74.10
49731;DHT22;35622;52.008;5.426;2023-05-10T13:53:39;19.50;74.90
49731;DHT22;35622;52.008;5.426;2023-05-10T13:56:05;19.40;73.80
49731;DHT22;35622;52.008;5.426;2023-05-10T13:58:30;19.40;74.30
49731;DHT22;35622;52.008;5.426;2023-05-10T14:00:56;19.20;74.50
49731;DHT22;35622;52.008;5.426;2023-05-10T14:03:22;19.10;75.50
49731;DHT22;35622;52.008;5.426;2023-05-10T14:05:47;19.00;76.40
49731;DHT22;35622;52.008;5.426;2023-05-10T14:08:13;19.20;76.90
49731;DHT22;35622;52.008;5.426;2023-05-10T14:10:39;19.20;75.80
49731;DHT22;35622;52.008;5.426;2023-05-10T14:13:05;19.10;76.70
49731;DHT22;35622;52.008;5.426;2023-05-10T14:15:31;19.00;77.20
49731;DHT22;35622;52.008;5.426;2023-05-10T14:17:57;18.90;77.50
49731;DHT22;35622;52.008;5.426;2023-05-10T14:20:22;19.00;78.00
49731;DHT22;35622;52.008;5.426;2023-05-10T14:22:48;19.10;78.00
49731;DHT22;35622;52.008;5.426;2023-05-10T14:25:14;19.40;77.60
49731;DHT22;35622;52.008;5.426;2023-05-10T14:27:39;19.30;77.10
49731;DHT22;35622;52.008;5.426;2023-05-10T14:30:05;19.20;77.70
49731;DHT22;35622;52.008;5.426;2023-05-10T14:32:31;19.30;78.20
49731;DHT22;35622;52.008;5.426;2023-05-10T14:34:57;19.50;77.60
49731;DHT22;35622;52.008;5.426;2023-05-10T14:37:22;19.30;77.70
49731;DHT22;35622;52.008;5.426;2023-05-10T14:39:48;19.40;77.20
49731;DHT22;35622;52.008;5.426;2023-05-10T14:42:13;19.40;78.30
49731;DHT22;35622;52.008;5.426;2023-05-10T14:44:39;19.60;78.10
49731;DHT22;35622;52.008;5.426;2023-05-10T14:47:05;19.70;77.00
49731;DHT22;35622;52.008;5.426;2023-05-10T14:49:30;19.70;77.80
49731;DHT22;35622;52.008;5.426;2023-05-10T14:51:56;20.10;77.10
49731;DHT22;35622;52.008;5.426;2023-05-10T14:54:21;20.20;77.30
49731;DHT22;35622;52.008;5.426;2023-05-10T14:56:47;20.40;77.20
49731;DHT22;35622;52.008;5.426;2023-05-10T14:59:15;20.70;76.20
49731;DHT22;35622;52.008;5.426;2023-05-10T15:01:40;21.00;75.70
49731;DHT22;35622;52.008;5.426;2023-05-10T15:04:07;21.30;74.90
49731;DHT22;35622;52.008;5.426;2023-05-10T15:06:34;21.50;74.70
49731;DHT22;35622;52.008;5.426;2023-05-10T15:09:01;21.90;70.90
49731;DHT22;35622;52.008;5.426;2023-05-10T15:11:28;22.10;71.80
49731;DHT22;35622;52.008;5.426;2023-05-10T15:13:54;22.30;70.40
49731;DHT22;35622;52.008;5.426;2023-05-10T15:16:20;22.20;69.00
49731;DHT22;35622;52.008;5.426;2023-05-10T15:18:46;22.10;69.40
49731;DHT22;35622;52.008;5.426;2023-05-10T15:21:11;22.10;68.10
49731;DHT22;35622;52.008;5.426;2023-05-10T15:23:37;22.10;70.30
49731;DHT22;35622;52.008;5.426;2023-05-10T15:26:03;21.90;70.20
49731;DHT22;35622;52.008;5.426;2023-05-10T15:28:28;22.20;69.90
49731;DHT22;35622;52.008;5.426;2023-05-10T15:30:54;22.40;69.50
49731;DHT22;35622;52.008;5.426;2023-05-10T15:33:20;22.60;68.80
49731;DHT22;35622;52.008;5.426;2023-05-10T15:35:45;22.60;68.00
49731;DHT22;35622;52.008;5.426;2023-05-10T15:38:11;22.70;66.10
49731;DHT22;35622;52.008;5.426;2023-05-10T15:40:36;22.70;66.60
49731;DHT22;35622;52.008;5.426;2023-05-10T15:43:02;22.90;65.60
49731;DHT22;35622;52.008;5.426;2023-05-10T15:45:28;22.80;65.30
49731;DHT22;35622;52.008;5.426;2023-05-10T15:47:53;22.70;65.90
49731;DHT22;35622;52.008;5.426;2023-05-10T15:50:19;22.70;66.80
49731;DHT22;35622;52.008;5.426;2023-05-10T15:52:44;22.60;66.70
49731;DHT22;35622;52.008;5.426;2023-05-10T15:55:10;22.50;68.10
49731;DHT22;35622;52.008;5.426;2023-05-10T15:57:39;22.50;67.20
49731;DHT22;35622;52.008;5.426;2023-05-10T16:00:06;22.50;66.10
49731;DHT22;35622;52.008;5.426;2023-05-10T16:02:32;22.20;67.00
49731;DHT22;35622;52.008;5.426;2023-05-10T16:04:58;22.10;69.00
49731;DHT22;35622;52.008;5.426;2023-05-10T16:07:23;22.00;67.40
49731;DHT22;35622;52.008;5.426;2023-05-10T16:09:49;21.90;66.50